Metar z połowy godziny Komunikat METAR ze strony awiacja.imgw.pl Metar G00 EPKT METAR EPKT 212330Z 08004KT CAVOK 16/12 Q1009 =